Algiers Airport, Algeria

9:48 AM CET on August 28, 2016 (GMT +0100)
Houari Boumediene | | Change Station

Elev 82 ft 36.69 °N, 3.22 °E | Updated 18 minutes ago

Clear
Clear
81 °F
Feels Like 82 °F
N
1
Wind Variable Wind from Variable

Today
High -- | Low -- °F
--% Chance of Precip.
Yesterday
High -- | Low -- °F
Precip. -- in
Pressure 30.12 in
Visibility 4.3 miles
Clouds
Heat Index 82 °F
Dew Point 64 °F
Humidity 58%
Rainfall 0.00 in
Snow Depth Not available.
6:15 AM 7:20 PM
Waning Crescent, 17% visible
METAR DAAG 280830Z VRB01KT 7000 NSC 27/18 Q1020
Pressure 30.12 in
Visibility 4.3 miles
Clouds
Heat Index 82 °F
Dew Point 64 °F
Humidity 58%
Rainfall 0.00 in
Snow Depth Not available.
6:15 AM 7:20 PM
Waning Crescent, 17% visible
METAR DAAG 280830Z VRB01KT 7000 NSC 27/18 Q1020

10-Day Weather Forecast

No radar image for this location.
×

Almanac

Astronomy

Aug. 28, 2016 Rise Set
Actual Time
Civil Twilight
Nautical Twilight
Astronomical Twilight
Moon
Length of Visible Light
Length of Day
Tomorrow will be .
, % of the Moon is Illuminated

Today's Extremes

Country Highs Country Lows

Community

WunderPhotos

Upload Photos

1,935,540 photos uploaded!

WunderBlog® & News

Nearby

Air Quality

  Air Quality AQ Index Pollutant
Not available.

Snow Depth

Station Depth Elevation

Earthquake Activity

City Distance Mag. Time & Date
Minimum magnitude displayed is 2.5.

Coastal Water Temperatures

Place Temperature

Stations

Nearby Weather Stations

Station Location Temp. Windchill Dew Point Humidity Wind Precip. Elev Updated Type